createdAt,value
2018-12-08T00:00:27.714Z,991.97
2018-12-08T00:01:27.638Z,992.08
2018-12-08T00:02:27.786Z,992.04
2018-12-08T00:03:27.582Z,992.08
2018-12-08T00:04:27.674Z,992.25
2018-12-08T00:05:27.528Z,992.23
2018-12-08T00:06:27.594Z,992.27
2018-12-08T00:07:27.574Z,992.34
2018-12-08T00:08:27.581Z,992.28
2018-12-08T00:09:27.543Z,992.42
2018-12-08T00:10:27.485Z,992.44
2018-12-08T00:11:27.470Z,992.42
2018-12-08T00:12:27.464Z,992.50
2018-12-08T00:13:27.447Z,992.50
2018-12-08T00:14:27.576Z,992.50
2018-12-08T00:15:27.469Z,992.51
2018-12-08T00:16:27.431Z,992.53
2018-12-08T00:17:27.405Z,992.70
2018-12-08T00:18:27.492Z,992.67
2018-12-08T00:19:28.310Z,992.67
2018-12-08T00:20:27.428Z,992.75
2018-12-08T00:21:27.357Z,992.81
2018-12-08T00:22:28.310Z,992.78
2018-12-08T00:23:27.334Z,992.79
2018-12-08T00:24:27.478Z,992.78
2018-12-08T00:25:27.445Z,992.83
2018-12-08T00:26:27.341Z,992.93
2018-12-08T00:27:27.363Z,992.98
2018-12-08T00:28:27.311Z,993.02
2018-12-08T00:29:27.276Z,993.04
2018-12-08T00:30:27.280Z,993.03
2018-12-08T00:31:27.308Z,993.08
2018-12-08T00:32:27.300Z,993.07
2018-12-08T00:33:27.303Z,993.19
2018-12-08T00:34:27.236Z,993.20
2018-12-08T00:35:27.228Z,993.39
2018-12-08T00:36:27.232Z,993.23
2018-12-08T00:37:27.188Z,993.33
2018-12-08T00:38:27.393Z,993.30
2018-12-08T00:39:27.172Z,993.51
2018-12-08T00:40:27.424Z,993.50
2018-12-08T00:41:27.221Z,993.55
2018-12-08T00:42:27.158Z,993.66
2018-12-08T00:43:27.163Z,993.61
2018-12-08T00:44:27.164Z,993.57
2018-12-08T00:45:27.112Z,993.61
2018-12-08T00:46:27.108Z,993.74
2018-12-08T00:47:27.105Z,993.83
2018-12-08T00:48:27.074Z,993.97
2018-12-08T00:49:27.296Z,993.88
2018-12-08T00:50:27.060Z,993.75
2018-12-08T00:51:27.035Z,993.98
2018-12-08T00:52:27.046Z,994.08
2018-12-08T00:53:27.050Z,994.01
2018-12-08T00:54:27.009Z,994.03
2018-12-08T00:55:27.054Z,994.06
2018-12-08T00:56:26.994Z,994.03
2018-12-08T00:57:27.021Z,994.12
2018-12-08T00:58:26.970Z,994.25
2018-12-08T00:59:26.957Z,994.26
2018-12-08T01:00:26.962Z,994.23
2018-12-08T01:01:26.981Z,994.19
2018-12-08T01:02:26.978Z,994.41
2018-12-08T01:03:26.929Z,994.24
2018-12-08T01:04:26.959Z,994.24
2018-12-08T01:05:26.901Z,994.35
2018-12-08T01:06:26.959Z,994.29
2018-12-08T01:07:26.875Z,994.28
2018-12-08T01:08:26.919Z,994.28
2018-12-08T01:09:26.843Z,994.28
2018-12-08T01:10:26.841Z,994.19
2018-12-08T01:11:26.850Z,994.26
2018-12-08T01:12:26.870Z,994.37
2018-12-08T01:13:26.863Z,994.37
2018-12-08T01:14:26.859Z,994.40
2018-12-08T01:15:26.860Z,994.47
2018-12-08T01:16:26.819Z,994.54
2018-12-08T01:17:26.761Z,994.53
2018-12-08T01:18:26.754Z,994.59
2018-12-08T01:19:26.765Z,994.58
2018-12-08T01:20:26.742Z,994.68
2018-12-08T01:21:26.750Z,994.68
2018-12-08T01:22:26.759Z,994.69
2018-12-08T01:23:26.720Z,994.74
2018-12-08T01:24:26.692Z,994.75
2018-12-08T01:25:26.695Z,994.72
2018-12-08T01:26:26.698Z,994.77
2018-12-08T01:27:26.688Z,994.82
2018-12-08T01:28:26.737Z,994.81
2018-12-08T01:29:26.702Z,994.83
2018-12-08T01:30:26.652Z,994.88
2018-12-08T01:31:26.921Z,994.89
2018-12-08T01:32:26.616Z,994.91
2018-12-08T01:33:26.641Z,995.02
2018-12-08T01:34:26.728Z,994.97
2018-12-08T01:35:26.596Z,995.04
2018-12-08T01:36:26.594Z,995.06
2018-12-08T01:37:26.569Z,995.09
2018-12-08T01:38:26.545Z,995.07
2018-12-08T01:39:26.529Z,995.05
2018-12-08T01:40:26.579Z,995.08
2018-12-08T01:41:26.516Z,995.09
2018-12-08T01:42:26.537Z,995.08
2018-12-08T01:43:26.483Z,995.07
2018-12-08T01:44:26.520Z,995.04
2018-12-08T01:45:26.489Z,995.05
2018-12-08T01:46:26.633Z,995.01
2018-12-08T01:47:26.482Z,994.95
2018-12-08T01:48:26.477Z,994.97
2018-12-08T01:49:26.463Z,995.04
2018-12-08T01:50:26.433Z,995.02
2018-12-08T01:51:26.432Z,995.01
2018-12-08T01:52:26.402Z,995.01
2018-12-08T01:53:26.392Z,994.99
2018-12-08T01:54:26.371Z,995.08
2018-12-08T01:55:26.393Z,995.01
2018-12-08T01:56:26.404Z,995.00
2018-12-08T01:57:26.361Z,994.97
2018-12-08T01:58:26.363Z,994.99
2018-12-08T01:59:26.344Z,995.00
2018-12-08T02:00:26.440Z,994.96
2018-12-08T02:01:26.357Z,994.99
2018-12-08T02:02:26.292Z,995.02
2018-12-08T02:03:26.309Z,995.05
2018-12-08T02:04:26.297Z,995.06
2018-12-08T02:05:26.304Z,995.16
2018-12-08T02:06:26.247Z,995.21
2018-12-08T02:07:26.254Z,995.21
2018-12-08T02:08:26.242Z,995.28
2018-12-08T02:09:26.257Z,995.24
2018-12-08T02:10:26.255Z,995.28
2018-12-08T02:11:26.209Z,995.30
2018-12-08T02:12:26.195Z,995.36
2018-12-08T02:13:26.207Z,995.48
2018-12-08T02:14:26.190Z,995.48
2018-12-08T02:15:26.224Z,995.45
2018-12-08T02:16:26.155Z,995.48
2018-12-08T02:17:26.137Z,995.49
2018-12-08T02:18:26.175Z,995.45
2018-12-08T02:19:26.171Z,995.58
2018-12-08T02:20:26.109Z,995.54
2018-12-08T02:21:26.110Z,995.59
2018-12-08T02:22:26.091Z,995.53
2018-12-08T02:23:26.077Z,995.54
2018-12-08T02:24:26.084Z,995.49
2018-12-08T02:25:26.177Z,995.55
2018-12-08T02:26:26.148Z,995.52
2018-12-08T02:27:26.044Z,995.53
2018-12-08T02:28:26.095Z,995.46
2018-12-08T02:29:26.000Z,995.43
2018-12-08T02:30:26.056Z,995.45
2018-12-08T02:31:26.002Z,995.49
2018-12-08T02:32:26.060Z,995.58
2018-12-08T02:33:25.992Z,995.52
2018-12-08T02:34:25.956Z,995.46
2018-12-08T02:35:25.964Z,995.50
2018-12-08T02:36:25.987Z,995.46
2018-12-08T02:37:25.972Z,995.54
2018-12-08T02:38:25.960Z,995.57
2018-12-08T02:39:26.204Z,995.64
2018-12-08T02:40:25.902Z,995.58
2018-12-08T02:41:25.958Z,995.59
2018-12-08T02:42:25.909Z,995.65
2018-12-08T02:43:26.011Z,995.60
2018-12-08T02:44:25.870Z,995.46
2018-12-08T02:45:25.877Z,995.54
2018-12-08T02:46:25.876Z,995.45
2018-12-08T02:47:25.974Z,995.45
2018-12-08T02:48:25.887Z,995.44
2018-12-08T02:49:25.846Z,995.46
2018-12-08T02:50:25.904Z,995.52
2018-12-08T02:51:25.806Z,995.62
2018-12-08T02:52:25.835Z,995.61
2018-12-08T02:53:25.791Z,995.65
2018-12-08T02:54:25.930Z,995.60
2018-12-08T02:55:25.784Z,995.56
2018-12-08T02:56:25.720Z,995.57
2018-12-08T02:57:25.757Z,995.50
2018-12-08T02:58:25.749Z,995.53
2018-12-08T02:59:25.798Z,995.54
2018-12-08T03:00:25.730Z,995.53
2018-12-08T03:01:25.732Z,995.69
2018-12-08T03:02:25.941Z,995.61
2018-12-08T03:03:25.688Z,995.75
2018-12-08T03:04:25.917Z,995.78
2018-12-08T03:05:26.179Z,995.80
2018-12-08T03:06:25.704Z,995.93
2018-12-08T03:07:25.675Z,995.93
2018-12-08T03:08:25.681Z,995.95
2018-12-08T03:09:25.653Z,995.95
2018-12-08T03:10:25.607Z,995.83
2018-12-08T03:11:25.603Z,995.82
2018-12-08T03:12:25.581Z,995.75
2018-12-08T03:13:25.629Z,995.81
2018-12-08T03:14:25.589Z,995.80
2018-12-08T03:15:25.535Z,995.83
2018-12-08T03:16:25.525Z,995.82
2018-12-08T03:17:25.530Z,995.91
2018-12-08T03:18:25.498Z,995.90
2018-12-08T03:19:25.666Z,995.93
2018-12-08T03:20:25.553Z,995.95
2018-12-08T03:21:25.519Z,995.97
2018-12-08T03:22:25.469Z,996.04
2018-12-08T03:23:25.472Z,996.02
2018-12-08T03:24:25.446Z,996.14
2018-12-08T03:25:25.434Z,996.14
2018-12-08T03:26:25.519Z,996.13
2018-12-08T03:27:25.457Z,996.08
2018-12-08T03:28:25.427Z,996.13
2018-12-08T03:29:25.405Z,996.11
2018-12-08T03:30:25.411Z,996.10
2018-12-08T03:31:25.409Z,996.21
2018-12-08T03:32:25.370Z,996.15
2018-12-08T03:33:25.363Z,996.21
2018-12-08T03:34:25.348Z,996.22
2018-12-08T03:35:25.336Z,996.30
2018-12-08T03:36:25.306Z,996.30
2018-12-08T03:37:25.313Z,996.32
2018-12-08T03:38:25.320Z,996.26
2018-12-08T03:39:25.278Z,996.32
2018-12-08T03:40:25.272Z,996.38
2018-12-08T03:41:25.314Z,996.33
2018-12-08T03:42:25.242Z,996.39
2018-12-08T03:43:25.269Z,996.37
2018-12-08T03:44:25.239Z,996.29
2018-12-08T03:45:25.246Z,996.38
2018-12-08T03:46:25.211Z,996.46
2018-12-08T03:47:25.240Z,996.36
2018-12-08T03:48:25.240Z,996.42
2018-12-08T03:49:25.179Z,996.45
2018-12-08T03:50:25.436Z,996.48
2018-12-08T03:51:25.150Z,996.46
2018-12-08T03:52:25.174Z,996.46
2018-12-08T03:53:25.166Z,996.50
2018-12-08T03:54:25.142Z,996.54
2018-12-08T03:55:25.126Z,996.56
2018-12-08T03:56:25.119Z,996.53
2018-12-08T03:57:25.090Z,996.61
2018-12-08T03:58:25.166Z,996.54
2018-12-08T03:59:25.093Z,996.55
2018-12-08T04:00:25.077Z,996.56
2018-12-08T04:01:25.044Z,996.52
2018-12-08T04:02:25.054Z,996.50
2018-12-08T04:03:25.102Z,996.48
2018-12-08T04:04:25.073Z,996.49
2018-12-08T04:05:25.241Z,996.44
2018-12-08T04:06:25.025Z,996.46
2018-12-08T04:07:24.997Z,996.47
2018-12-08T04:08:25.017Z,996.41
2018-12-08T04:09:24.977Z,996.42
2018-12-08T04:10:25.042Z,996.49
2018-12-08T04:11:24.994Z,996.45
2018-12-08T04:12:25.004Z,996.47
2018-12-08T04:13:24.927Z,996.49
2018-12-08T04:14:24.941Z,996.48
2018-12-08T04:15:24.970Z,996.52
2018-12-08T04:16:24.907Z,996.59
2018-12-08T04:17:24.891Z,996.55
2018-12-08T04:18:24.901Z,996.62
2018-12-08T04:19:24.872Z,996.66
2018-12-08T04:20:24.939Z,996.57
2018-12-08T04:21:24.837Z,996.58
2018-12-08T04:22:24.850Z,996.57
2018-12-08T04:23:24.849Z,996.58
2018-12-08T04:24:24.866Z,996.54
2018-12-08T04:25:24.821Z,996.52
2018-12-08T04:26:24.858Z,996.56
2018-12-08T04:27:24.827Z,996.63
2018-12-08T04:28:24.772Z,996.53
2018-12-08T04:29:24.841Z,996.55
2018-12-08T04:30:24.794Z,996.58
2018-12-08T04:31:24.747Z,996.60
2018-12-08T04:32:24.729Z,996.61
2018-12-08T04:33:24.826Z,996.66
2018-12-08T04:34:24.711Z,996.61
2018-12-08T04:35:24.720Z,996.69
2018-12-08T04:36:24.728Z,996.70
2018-12-08T04:37:24.682Z,996.69
2018-12-08T04:38:24.662Z,996.83
2018-12-08T04:39:24.671Z,996.81
2018-12-08T04:40:24.677Z,996.83
2018-12-08T04:41:24.894Z,996.84
2018-12-08T04:42:24.656Z,996.81
2018-12-08T04:43:24.635Z,996.75
2018-12-08T04:44:24.617Z,996.83
2018-12-08T04:45:24.639Z,996.87
2018-12-08T04:46:24.622Z,996.82
2018-12-08T04:47:24.605Z,996.86
2018-12-08T04:48:24.563Z,996.85
2018-12-08T04:49:24.674Z,996.88
2018-12-08T04:50:24.578Z,996.91
2018-12-08T04:51:24.569Z,996.88
2018-12-08T04:52:24.558Z,996.88
2018-12-08T04:53:24.588Z,996.93
2018-12-08T04:54:24.509Z,996.95
2018-12-08T04:55:24.506Z,996.99
2018-12-08T04:56:24.489Z,997.04
2018-12-08T04:57:24.618Z,997.06
2018-12-08T04:58:24.506Z,997.04
2018-12-08T04:59:24.458Z,997.05
2018-12-08T05:00:24.467Z,997.09
2018-12-08T05:01:24.466Z,997.14
2018-12-08T05:02:24.434Z,997.15
2018-12-08T05:03:24.447Z,997.08
2018-12-08T05:04:24.427Z,997.07
2018-12-08T05:05:24.491Z,997.05
2018-12-08T05:06:24.428Z,997.13
2018-12-08T05:07:24.381Z,997.16
2018-12-08T05:08:24.391Z,997.22
2018-12-08T05:09:24.390Z,997.21
2018-12-08T05:10:24.353Z,997.20
2018-12-08T05:11:24.346Z,997.35
2018-12-08T05:12:24.326Z,997.36
2018-12-08T05:13:24.309Z,997.35
2018-12-08T05:14:24.391Z,997.41
2018-12-08T05:15:24.291Z,997.34
2018-12-08T05:16:24.294Z,997.29
2018-12-08T05:17:24.287Z,997.37
2018-12-08T05:18:24.278Z,997.36
2018-12-08T05:19:24.248Z,997.37
2018-12-08T05:20:24.253Z,997.37
2018-12-08T05:21:24.228Z,997.33
2018-12-08T05:22:24.232Z,997.36
2018-12-08T05:23:24.205Z,997.38
2018-12-08T05:24:24.187Z,997.42
2018-12-08T05:25:24.185Z,997.37
2018-12-08T05:26:24.247Z,997.40
2018-12-08T05:27:24.165Z,997.33
2018-12-08T05:28:24.150Z,997.42
2018-12-08T05:29:24.150Z,997.36
2018-12-08T05:30:24.184Z,997.40
2018-12-08T05:31:24.127Z,997.43
2018-12-08T05:32:24.106Z,997.43
2018-12-08T05:33:24.118Z,997.44
2018-12-08T05:34:24.111Z,997.47
2018-12-08T05:35:24.072Z,997.48
2018-12-08T05:36:24.152Z,997.52
2018-12-08T05:37:24.050Z,997.47
2018-12-08T05:38:24.046Z,997.48
2018-12-08T05:39:24.101Z,997.55
2018-12-08T05:40:24.041Z,997.50
2018-12-08T05:41:24.037Z,997.56
2018-12-08T05:42:24.082Z,997.55
2018-12-08T05:43:24.015Z,997.56
2018-12-08T05:44:24.023Z,997.54
2018-12-08T05:45:24.038Z,997.58
2018-12-08T05:46:23.983Z,997.58
2018-12-08T05:47:23.971Z,997.53
2018-12-08T05:48:24.029Z,997.54
2018-12-08T05:49:23.953Z,997.52
2018-12-08T05:50:23.963Z,997.55
2018-12-08T05:51:23.935Z,997.54
2018-12-08T05:52:23.917Z,997.53
2018-12-08T05:53:23.910Z,997.54
2018-12-08T05:54:23.871Z,997.51
2018-12-08T05:55:23.867Z,997.51
2018-12-08T05:56:23.886Z,997.54
2018-12-08T05:57:23.859Z,997.50
2018-12-08T05:58:23.848Z,997.56
2018-12-08T05:59:23.865Z,997.53
2018-12-08T06:00:23.850Z,997.44
2018-12-08T06:01:23.820Z,997.45
2018-12-08T06:02:23.791Z,997.48
2018-12-08T06:03:23.774Z,997.45
2018-12-08T06:04:23.791Z,997.47
2018-12-08T06:05:23.770Z,997.43
2018-12-08T06:06:23.787Z,997.41
2018-12-08T06:07:23.802Z,997.47
2018-12-08T06:08:23.727Z,997.41
2018-12-08T06:09:23.757Z,997.47
2018-12-08T06:10:23.827Z,997.48
2018-12-08T06:11:23.692Z,997.47
2018-12-08T06:12:23.712Z,997.52
2018-12-08T06:13:23.694Z,997.51
2018-12-08T06:14:23.670Z,997.44
2018-12-08T06:15:23.680Z,997.48
2018-12-08T06:16:23.652Z,997.47
2018-12-08T06:17:23.670Z,997.44
2018-12-08T06:18:23.654Z,997.52
2018-12-08T06:19:23.635Z,997.52
2018-12-08T06:20:23.627Z,997.48
2018-12-08T06:21:23.633Z,997.44
2018-12-08T06:22:23.609Z,997.47
2018-12-08T06:23:23.728Z,997.37
2018-12-08T06:24:23.587Z,997.36
2018-12-08T06:25:23.588Z,997.31
2018-12-08T06:26:23.576Z,997.33
2018-12-08T06:27:23.640Z,997.36
2018-12-08T06:28:23.539Z,997.38
2018-12-08T06:29:23.563Z,997.35
2018-12-08T06:30:23.555Z,997.35
2018-12-08T06:31:23.587Z,997.34
2018-12-08T06:32:23.484Z,997.41
2018-12-08T06:33:23.500Z,997.40
2018-12-08T06:34:23.471Z,997.40
2018-12-08T06:35:23.442Z,997.39
2018-12-08T06:36:23.533Z,997.42
2018-12-08T06:37:23.493Z,997.43
2018-12-08T06:38:25.335Z,997.38
2018-12-08T06:39:23.420Z,997.37
2018-12-08T06:40:29.182Z,997.38
2018-12-08T06:41:24.407Z,997.39
2018-12-08T06:42:23.385Z,997.40
2018-12-08T06:43:23.466Z,997.37
2018-12-08T06:44:23.348Z,997.44
2018-12-08T06:45:23.354Z,997.40
2018-12-08T06:46:23.533Z,997.44
2018-12-08T06:47:23.387Z,997.50
2018-12-08T06:48:23.365Z,997.52
2018-12-08T06:49:23.306Z,997.57
2018-12-08T06:50:23.316Z,997.47
2018-12-08T06:51:23.289Z,997.57
2018-12-08T06:52:23.357Z,997.58
2018-12-08T06:53:23.265Z,997.56
2018-12-08T06:54:23.270Z,997.53
2018-12-08T06:55:23.271Z,997.55
2018-12-08T06:56:23.271Z,997.61
2018-12-08T06:57:23.310Z,997.52
2018-12-08T06:58:23.250Z,997.60
2018-12-08T06:59:23.192Z,997.58
2018-12-08T07:00:23.220Z,997.58
2018-12-08T07:01:23.258Z,997.59
2018-12-08T07:02:23.162Z,997.57
2018-12-08T07:03:23.191Z,997.54
2018-12-08T07:04:23.155Z,997.60
2018-12-08T07:05:23.164Z,997.56
2018-12-08T07:06:23.283Z,997.53
2018-12-08T07:07:23.144Z,997.50
2018-12-08T07:08:23.344Z,997.50
2018-12-08T07:09:23.164Z,997.46
2018-12-08T07:10:23.093Z,997.51
2018-12-08T07:11:23.079Z,997.52
2018-12-08T07:12:23.075Z,997.48
2018-12-08T07:13:23.038Z,997.48
2018-12-08T07:14:23.078Z,997.51
2018-12-08T07:15:23.057Z,997.50
2018-12-08T07:16:23.036Z,997.43
2018-12-08T07:17:23.031Z,997.37
2018-12-08T07:18:23.052Z,997.38
2018-12-08T07:19:23.207Z,997.40
2018-12-08T07:20:23.001Z,997.43
2018-12-08T07:21:23.076Z,997.41
2018-12-08T07:22:22.969Z,997.40
2018-12-08T07:23:22.981Z,997.42
2018-12-08T07:24:22.925Z,997.44
2018-12-08T07:25:22.969Z,997.37
2018-12-08T07:26:23.034Z,997.36
2018-12-08T07:27:22.913Z,997.40
2018-12-08T07:28:22.886Z,997.40
2018-12-08T07:29:22.931Z,997.38
2018-12-08T07:30:22.915Z,997.43
2018-12-08T07:31:22.855Z,997.45
2018-12-08T07:32:22.878Z,997.47
2018-12-08T07:33:22.884Z,997.46
2018-12-08T07:34:24.626Z,997.45
2018-12-08T07:35:22.818Z,997.48
2018-12-08T07:36:22.830Z,997.39
2018-12-08T07:37:22.817Z,997.45
2018-12-08T07:38:22.803Z,997.46
2018-12-08T07:39:22.807Z,997.37
2018-12-08T07:40:22.790Z,997.47
2018-12-08T07:41:22.901Z,997.34
2018-12-08T07:42:22.782Z,997.38
2018-12-08T07:43:22.765Z,997.38
2018-12-08T07:44:22.741Z,997.34
2018-12-08T07:45:22.766Z,997.39
2018-12-08T07:46:22.705Z,997.36
2018-12-08T07:47:22.845Z,997.33
2018-12-08T07:48:22.759Z,997.34
2018-12-08T07:49:22.700Z,997.35
2018-12-08T07:50:22.683Z,997.37
2018-12-08T07:51:22.682Z,997.35
2018-12-08T07:52:22.699Z,997.44
2018-12-08T07:53:22.715Z,997.39
2018-12-08T07:54:22.802Z,997.43
2018-12-08T07:55:22.829Z,997.36
2018-12-08T07:56:22.678Z,997.31
2018-12-08T07:57:22.738Z,997.32
2018-12-08T07:58:22.633Z,997.27
2018-12-08T07:59:22.594Z,997.28
2018-12-08T08:00:22.585Z,997.23
2018-12-08T08:01:22.605Z,997.26
2018-12-08T08:02:22.542Z,997.21
2018-12-08T08:03:22.563Z,997.22
2018-12-08T08:04:22.536Z,997.18
2018-12-08T08:05:22.497Z,997.18
2018-12-08T08:06:22.552Z,997.19
2018-12-08T08:07:22.495Z,997.27
2018-12-08T08:08:22.477Z,997.28
2018-12-08T08:09:22.460Z,997.25
2018-12-08T08:10:22.553Z,997.28
2018-12-08T08:11:22.439Z,997.20
2018-12-08T08:12:22.460Z,997.09
2018-12-08T08:13:22.420Z,997.15
2018-12-08T08:14:22.482Z,997.14
2018-12-08T08:15:22.469Z,997.17
2018-12-08T08:16:22.415Z,997.19
2018-12-08T08:17:22.421Z,997.24
2018-12-08T08:18:22.410Z,997.17
2018-12-08T08:19:22.410Z,997.20
2018-12-08T08:20:22.402Z,997.16
2018-12-08T08:21:22.425Z,997.11
2018-12-08T08:22:22.336Z,997.04
2018-12-08T08:23:22.389Z,997.05
2018-12-08T08:24:22.326Z,997.04
2018-12-08T08:25:22.719Z,997.04
2018-12-08T08:26:22.619Z,997.05
2018-12-08T08:27:22.265Z,997.01
2018-12-08T08:28:22.272Z,997.01
2018-12-08T08:29:22.267Z,997.12
2018-12-08T08:30:22.256Z,997.11
2018-12-08T08:31:22.244Z,997.07
2018-12-08T08:32:22.280Z,997.02
2018-12-08T08:33:22.208Z,996.99
2018-12-08T08:34:22.209Z,997.00
2018-12-08T08:35:22.263Z,997.04
2018-12-08T08:36:22.200Z,997.00
2018-12-08T08:37:22.221Z,997.01
2018-12-08T08:38:22.143Z,997.07
2018-12-08T08:39:22.168Z,997.00
2018-12-08T08:40:22.212Z,997.05
2018-12-08T08:41:22.128Z,997.03
2018-12-08T08:42:22.155Z,997.00
2018-12-08T08:43:22.166Z,996.92
2018-12-08T08:44:22.123Z,996.98
2018-12-08T08:45:22.081Z,997.02
2018-12-08T08:46:22.914Z,997.05
2018-12-08T08:47:22.100Z,997.01
2018-12-08T08:48:22.879Z,997.03
2018-12-08T08:49:22.276Z,996.99
2018-12-08T08:50:22.057Z,997.01
2018-12-08T08:51:22.639Z,997.02
2018-12-08T08:52:22.095Z,996.96
2018-12-08T08:53:22.880Z,996.90
2018-12-08T08:54:22.027Z,996.94
2018-12-08T08:55:21.999Z,996.97
2018-12-08T08:56:21.967Z,996.93
2018-12-08T08:57:21.978Z,996.86
2018-12-08T08:58:21.942Z,996.80
2018-12-08T08:59:22.028Z,996.83
2018-12-08T09:00:21.948Z,996.88
2018-12-08T09:01:21.919Z,996.82
2018-12-08T09:02:21.935Z,996.84
2018-12-08T09:03:21.965Z,996.88
2018-12-08T09:04:21.898Z,996.86
2018-12-08T09:05:21.941Z,996.83
2018-12-08T09:06:21.901Z,996.78
2018-12-08T09:07:21.864Z,996.81
2018-12-08T09:08:21.951Z,996.81
2018-12-08T09:09:21.864Z,996.81
2018-12-08T09:10:21.842Z,996.83
2018-12-08T09:11:21.849Z,996.77
2018-12-08T09:12:21.836Z,996.78
2018-12-08T09:13:21.794Z,996.80
2018-12-08T09:14:21.792Z,996.81
2018-12-08T09:15:21.774Z,996.73
2018-12-08T09:16:21.947Z,996.78
2018-12-08T09:17:21.942Z,996.83
2018-12-08T09:18:22.018Z,996.77
2018-12-08T09:19:21.771Z,996.66
2018-12-08T09:20:21.895Z,996.66
2018-12-08T09:21:21.705Z,996.67
2018-12-08T09:22:21.691Z,996.64
2018-12-08T09:23:22.563Z,996.63
2018-12-08T09:24:21.705Z,996.67
2018-12-08T09:25:21.811Z,996.68
2018-12-08T09:26:21.674Z,996.66
2018-12-08T09:27:21.674Z,996.62
2018-12-08T09:28:21.627Z,996.64
2018-12-08T09:29:21.675Z,996.69
2018-12-08T09:30:21.640Z,996.64
2018-12-08T09:31:21.606Z,996.64
2018-12-08T09:32:21.591Z,996.63
2018-12-08T09:33:21.572Z,996.64
2018-12-08T09:34:21.613Z,996.60
2018-12-08T09:35:24.031Z,996.61
2018-12-08T09:36:21.562Z,996.58
2018-12-08T09:37:21.562Z,996.60
2018-12-08T09:38:21.529Z,996.64
2018-12-08T09:39:21.517Z,996.60
2018-12-08T09:40:21.701Z,996.60
2018-12-08T09:41:21.563Z,996.57
2018-12-08T09:42:21.500Z,996.63
2018-12-08T09:43:21.565Z,996.61
2018-12-08T09:44:21.483Z,996.56
2018-12-08T09:45:21.483Z,996.53
2018-12-08T09:46:21.471Z,996.47
2018-12-08T09:47:21.462Z,996.49
2018-12-08T09:48:21.458Z,996.42
2018-12-08T09:49:21.410Z,996.40
2018-12-08T09:50:21.418Z,996.45
2018-12-08T09:51:21.502Z,996.44
2018-12-08T09:52:21.633Z,996.40
2018-12-08T09:53:21.438Z,996.42
2018-12-08T09:54:21.397Z,996.39
2018-12-08T09:55:21.404Z,996.41
2018-12-08T09:56:21.377Z,996.28
2018-12-08T09:57:21.333Z,996.29
2018-12-08T09:58:21.407Z,996.25
2018-12-08T09:59:21.329Z,996.20
2018-12-08T10:00:21.339Z,996.23
2018-12-08T10:01:21.320Z,996.34
2018-12-08T10:02:21.305Z,996.18
2018-12-08T10:03:21.266Z,996.20
2018-12-08T10:04:21.279Z,996.17
2018-12-08T10:05:21.261Z,996.12
2018-12-08T10:06:21.271Z,996.12
2018-12-08T10:07:21.223Z,996.12
2018-12-08T10:08:21.216Z,996.13
2018-12-08T10:09:21.245Z,996.04
2018-12-08T10:10:21.271Z,996.10
2018-12-08T10:11:21.203Z,996.19
2018-12-08T10:12:21.217Z,996.12
2018-12-08T10:13:21.203Z,996.06
2018-12-08T10:14:21.287Z,996.07
2018-12-08T10:15:21.187Z,996.11
2018-12-08T10:16:21.133Z,996.06
2018-12-08T10:17:21.149Z,996.04
2018-12-08T10:18:21.192Z,996.01
2018-12-08T10:19:21.106Z,996.05
2018-12-08T10:20:21.087Z,995.97
2018-12-08T10:21:21.139Z,996.02
2018-12-08T10:22:21.130Z,995.95
2018-12-08T10:23:21.060Z,995.87
2018-12-08T10:24:21.093Z,995.85
2018-12-08T10:25:21.027Z,995.82
2018-12-08T10:26:21.040Z,995.78
2018-12-08T10:27:21.025Z,995.79
2018-12-08T10:28:21.099Z,995.99
2018-12-08T10:29:21.022Z,995.87
2018-12-08T10:30:20.996Z,995.91
2018-12-08T10:31:20.979Z,995.75
2018-12-08T10:32:20.964Z,995.81
2018-12-08T10:33:21.065Z,995.85
2018-12-08T10:34:21.896Z,995.90
2018-12-08T10:35:20.998Z,995.84
2018-12-08T10:36:20.949Z,995.77
2018-12-08T10:37:20.977Z,995.76
2018-12-08T10:38:20.940Z,995.76
2018-12-08T10:39:20.891Z,995.71
2018-12-08T10:40:20.880Z,995.67
2018-12-08T10:41:20.989Z,995.79
2018-12-08T10:42:27.482Z,995.70
2018-12-08T10:43:21.113Z,995.71
2018-12-08T10:44:20.906Z,995.73
2018-12-08T10:45:20.857Z,995.64
2018-12-08T10:46:20.870Z,995.60
2018-12-08T10:47:20.829Z,995.68
2018-12-08T10:48:20.811Z,995.67
2018-12-08T10:49:20.815Z,995.57
2018-12-08T10:50:20.806Z,995.60
2018-12-08T10:51:20.772Z,995.58
2018-12-08T10:52:20.916Z,995.60
2018-12-08T10:53:20.855Z,995.46
2018-12-08T10:54:20.785Z,995.54
2018-12-08T10:55:20.885Z,995.55
2018-12-08T10:56:20.757Z,995.54
2018-12-08T10:57:20.705Z,995.49
2018-12-08T10:58:20.711Z,995.43
2018-12-08T10:59:20.703Z,995.42
2018-12-08T11:00:20.731Z,995.46
2018-12-08T11:01:20.669Z,995.39
2018-12-08T11:02:20.643Z,995.41
2018-12-08T11:03:20.633Z,995.39
2018-12-08T11:04:20.689Z,995.48
2018-12-08T11:05:20.691Z,995.44
2018-12-08T11:06:20.615Z,995.33
2018-12-08T11:07:20.657Z,995.29
2018-12-08T11:08:20.622Z,995.38
2018-12-08T11:09:21.400Z,995.26
2018-12-08T11:10:20.592Z,995.21
2018-12-08T11:11:20.599Z,995.22
2018-12-08T11:12:20.556Z,995.14
2018-12-08T11:13:20.529Z,995.17
2018-12-08T11:14:20.764Z,995.20
2018-12-08T11:15:20.546Z,995.21
2018-12-08T11:16:28.403Z,995.21
2018-12-08T11:17:20.596Z,995.16
2018-12-08T11:18:21.406Z,995.05
2018-12-08T11:19:20.503Z,995.15
2018-12-08T11:20:29.471Z,995.16
2018-12-08T11:21:20.427Z,995.06
2018-12-08T11:22:20.415Z,995.16
2018-12-08T11:23:20.415Z,995.10
2018-12-08T11:24:20.436Z,995.10
2018-12-08T11:25:20.404Z,994.94
2018-12-08T11:26:20.381Z,995.07
2018-12-08T11:27:21.958Z,995.07
2018-12-08T11:28:20.384Z,995.03
2018-12-08T11:29:20.363Z,995.04
2018-12-08T11:30:20.342Z,995.04
2018-12-08T11:31:20.328Z,994.97
2018-12-08T11:32:20.315Z,995.02
2018-12-08T11:33:20.311Z,995.01
2018-12-08T11:34:20.308Z,995.00
2018-12-08T11:35:20.284Z,995.03
2018-12-08T11:36:20.288Z,995.00
2018-12-08T11:37:20.266Z,994.99
2018-12-08T11:38:20.250Z,994.96
2018-12-08T11:39:20.245Z,994.97
2018-12-08T11:40:20.263Z,994.91
2018-12-08T11:41:20.238Z,994.90
2018-12-08T11:42:20.215Z,994.80
2018-12-08T11:43:20.192Z,994.86
2018-12-08T11:44:20.214Z,994.81
2018-12-08T11:45:20.217Z,994.78
2018-12-08T11:46:20.173Z,994.79
2018-12-08T11:47:20.168Z,994.84
2018-12-08T11:48:20.156Z,994.85
2018-12-08T11:49:20.138Z,994.75
2018-12-08T11:50:20.140Z,994.76
2018-12-08T11:51:20.131Z,994.73
2018-12-08T11:52:20.116Z,994.69
2018-12-08T11:53:20.192Z,994.63
2018-12-08T11:54:20.097Z,994.58
2018-12-08T11:55:20.070Z,994.63
2018-12-08T11:56:20.070Z,994.69
2018-12-08T11:57:20.059Z,994.63
2018-12-08T11:58:20.048Z,994.68
2018-12-08T11:59:20.071Z,994.72
2018-12-08T12:00:20.025Z,994.74
2018-12-08T12:01:20.010Z,994.65
2018-12-08T12:02:19.995Z,994.79
2018-12-08T12:03:19.990Z,994.70
2018-12-08T12:04:19.989Z,994.68
2018-12-08T12:05:19.983Z,994.70
2018-12-08T12:06:19.958Z,994.67
2018-12-08T12:07:20.000Z,994.55
2018-12-08T12:08:19.966Z,994.56
2018-12-08T12:09:19.974Z,994.50
2018-12-08T12:10:19.915Z,994.58
2018-12-08T12:11:20.490Z,994.50
2018-12-08T12:12:19.900Z,994.51
2018-12-08T12:13:19.880Z,994.54
2018-12-08T12:14:19.872Z,994.46
2018-12-08T12:15:19.870Z,994.53
2018-12-08T12:16:19.881Z,994.41
2018-12-08T12:17:19.848Z,994.56
2018-12-08T12:18:19.834Z,994.52
2018-12-08T12:19:19.827Z,994.45
2018-12-08T12:20:19.823Z,994.46
2018-12-08T12:21:19.800Z,994.48
2018-12-08T12:22:19.808Z,994.47
2018-12-08T12:23:19.818Z,994.51
2018-12-08T12:24:19.933Z,994.45
2018-12-08T12:25:19.757Z,994.36
2018-12-08T12:26:19.756Z,994.38
2018-12-08T12:27:19.824Z,994.45
2018-12-08T12:28:19.745Z,994.46